Latest Weather Observations for Adelaide

IDS60901

Issued at 12:55 pm CST Thursday 31 July 2014 (issued every 10 minutes, with the page automatically refreshed every 10 minutes)

About weather observations | Map of Adelaide area stations | Latest observations for Adelaide area | Other Formats
Station Details ID: 023090 Name: KENT TOWN Lat: -34.92 Lon: 138.62 Height: 48.0 m
Data from the previous 72 hours. | See also: Recent months at Adelaide
Date/Time
CST
Tmp

°C
App
Tmp
°C
Dew
Point
°C
Rel
Hum
%
Delta-T

°C
Wind Press
QNH
hPa
Press
MSL
hPa
Rain
since
9 am
mm
Dir
 
Spd
km/h
Gust
km/h
Spd
kts
Gust
kts
31/12:30pm 11.3 7.0 10.7 96 0.3 WSW 24 41 13 22 1005.1 - 3.2
31/12:21pm 11.7 6.7 10.9 95 0.4 WSW 28 44 15 24 1005.0 - 2.4
31/12:12pm 12.9 6.1 10.8 87 1.1 WNW 37 56 20 30 1005.0 - 1.4
31/12:00pm 14.9 8.7 7.7 62 3.6 NNW 30 54 16 29 1004.3 1004.4 0.2
31/11:30am 15.2 7.9 7.1 58 4.0 NNW 35 54 19 29 1004.8 - 0.2
31/11:00am 15.9 9.1 7.0 55 4.4 NNW 32 52 17 28 1005.4 - 0.2
31/10:30am 16.1 10.2 7.3 56 4.4 NNW 28 54 15 29 1006.0 - 0.2
31/10:02am 15.8 9.9 7.4 57 4.2 N 28 46 15 25 1005.9 - 0.2
31/10:00am 15.7 9.8 7.3 57 4.2 N 28 41 15 22 1006.0 - 0.2
31/09:52am 15.5 9.6 7.3 58 4.1 N 28 50 15 27 1006.1 - 0.2
31/09:30am 14.8 10.1 7.6 62 3.6 N 22 32 12 17 1006.6 - 0.2
31/09:00am 14.2 10.1 7.8 65 3.2 N 19 30 10 16 1007.1 1007.2 0.0
31/08:30am 13.2 9.8 7.5 68 2.8 N 15 28 8 15 1007.3 - 0.0
31/08:00am 11.9 8.4 7.1 72 2.3 N 15 26 8 14 1007.4 - 0.0
31/07:30am 10.9 7.7 6.9 76 1.9 N 13 19 7 10 1007.2 - 0.0
31/07:00am 11.3 7.4 6.9 74 2.1 N 17 24 9 13 1007.6 - 0.0
31/06:30am 10.6 7.7 6.6 76 1.9 N 11 20 6 11 1007.8 - 0.0
31/06:00am 10.4 7.8 6.3 76 1.9 N 9 17 5 9 1007.7 1007.8 0.0
31/05:30am 10.8 7.5 6.3 74 2.1 N 13 22 7 12 1007.7 - 0.0
31/05:00am 11.0 7.7 6.3 73 2.2 NNE 13 20 7 11 1008.0 - 0.0
31/04:30am 10.8 7.9 6.6 75 2.0 NNE 11 17 6 9 1008.1 - 0.0
31/04:00am 10.9 7.7 6.7 75 2.0 NE 13 19 7 10 1008.4 - 0.0
31/03:30am 10.9 8.1 6.9 76 1.9 NE 11 19 6 10 1009.0 - 0.0
31/03:00am 11.0 8.3 7.3 78 1.8 NE 11 17 6 9 1009.5 1009.6 0.0
31/02:30am 11.0 8.4 7.7 80 1.6 NE 11 17 6 9 1010.0 - 0.0
31/02:00am 11.3 9.1 7.8 79 1.7 NNE 9 20 5 11 1010.6 - 0.0
31/01:30am 11.2 8.7 8.1 81 1.5 NE 11 17 6 9 1011.1 - 0.0
31/01:00am 10.8 8.7 8.4 85 1.2 NE 9 15 5 8 1011.3 - 0.0
31/12:30am 10.5 8.5 8.7 89 0.9 NE 9 13 5 7 1011.7 - 0.0
31/12:00am 10.6 9.1 9.0 90 0.8 NE 7 11 4 6 1012.1 1012.2 0.0
 
Date/Time
CST
Tmp

°C
App
Tmp
°C
Dew
Point
°C
Rel
Hum
%
Delta-T

°C
Wind Press
QNH
hPa
Press
MSL
hPa
Rain
since
9 am
mm
Dir
 
Spd
km/h
Gust
km/h
Spd
kts
Gust
kts
30/11:30pm 10.9 9.0 9.1 89 0.9 NE 9 13 5 7 1012.7 - 0.0
30/11:00pm 11.3 9.9 9.5 89 0.9 NE 7 9 4 5 1013.0 - 0.0
30/10:30pm 12.1 10.7 9.7 85 1.2 NNE 7 11 4 6 1013.4 - 0.0
30/10:00pm 12.9 11.7 10.2 84 1.4 NNE 7 13 4 7 1013.8 - 0.0
30/09:30pm 13.5 11.9 10.2 80 1.7 N 9 13 5 7 1014.1 - 0.0
30/09:00pm 13.9 12.3 10.3 79 1.9 NNW 9 13 5 7 1014.2 1014.2 0.0
30/08:30pm 13.7 12.2 10.4 80 1.7 N 9 13 5 7 1014.5 - 0.0
30/08:00pm 14.1 12.3 10.7 80 1.8 NNW 11 20 6 11 1014.7 - 0.0
30/07:30pm 14.6 12.7 10.6 77 2.1 NNW 11 19 6 10 1014.9 - 0.0
30/07:00pm 14.6 12.8 11.0 79 1.9 N 11 19 6 10 1015.0 - 0.0
30/06:30pm 14.6 12.9 11.2 80 1.8 N 11 17 6 9 1015.0 - 0.0
30/06:00pm 14.7 12.2 10.9 78 2.0 N 15 20 8 11 1014.8 1014.9 0.0
30/05:30pm 15.1 11.8 11.0 76 2.2 NNW 19 32 10 17 1014.8 - 0.0
30/05:00pm 15.3 12.5 11.2 76 2.2 NNW 17 28 9 15 1014.7 - 0.0
30/04:30pm 15.5 12.0 10.8 73 2.5 NNW 20 33 11 18 1014.9 - 0.0
30/04:00pm 15.6 12.2 11.1 74 2.4 NW 20 33 11 18 1015.2 - 0.0
30/03:30pm 15.8 11.9 10.9 72 2.6 NW 22 35 12 19 1015.3 - 0.0
30/03:00pm 16.3 13.0 11.5 73 2.6 NW 20 43 11 23 1015.5 1015.6 0.0
30/02:30pm 16.4 12.3 11.4 72 2.7 NW 24 33 13 18 1015.6 - 0.0
30/02:00pm 16.2 13.1 11.6 74 2.5 NW 19 30 10 16 1015.9 - 0.0
30/01:30pm 16.0 12.9 11.6 75 2.4 NW 19 35 10 19 1016.2 - 0.0
30/01:00pm 16.0 12.4 11.8 76 2.3 NW 22 30 12 16 1016.7 - 0.0
30/12:30pm 16.2 13.0 11.8 75 2.4 NW 20 33 11 18 1017.1 - 0.0
30/12:00pm 15.9 11.9 11.8 76 2.2 NW 24 39 13 21 1017.7 1017.8 0.0
30/11:30am 16.4 13.4 11.8 74 2.5 NW 19 30 10 16 1018.0 - 0.0
30/11:00am 16.1 13.5 11.9 76 2.3 NW 17 26 9 14 1018.3 - 0.0
30/10:30am 14.4 10.7 11.4 82 1.6 NNW 22 32 12 17 1018.8 - 0.0
30/10:00am 13.7 11.4 11.6 87 1.1 NW 15 20 8 11 1018.9 - 0.0
30/09:30am 13.4 10.3 11.5 88 1.0 NNW 19 30 10 16 1019.1 - 0.0
30/09:00am 13.5 11.2 11.6 88 1.0 NW 15 24 8 13 1018.7 1018.8 3.2
30/08:30am 13.1 10.8 11.6 91 0.8 NW 15 26 8 14 1018.5 - 3.2
30/08:00am 12.9 10.2 11.6 92 0.7 NNW 17 22 9 12 1018.7 - 3.2
30/07:30am 12.8 10.0 11.5 92 0.7 NNW 17 24 9 13 1018.7 - 3.2
30/07:00am 12.8 10.0 11.5 92 0.7 NNW 17 24 9 13 1018.5 - 3.2
30/06:30am 12.8 10.8 11.5 92 0.7 NNW 13 20 7 11 1018.3 - 3.2
30/06:00am 12.8 10.4 11.5 92 0.7 NNW 15 22 8 12 1018.0 1018.1 3.2
30/05:30am 12.8 10.8 11.5 92 0.7 N 13 20 7 11 1017.8 - 3.2
30/05:00am 12.9 10.9 11.6 92 0.7 N 13 20 7 11 1017.8 - 3.2
30/04:30am 13.0 10.7 11.9 93 0.6 N 15 24 8 13 1017.5 - 3.2
30/04:00am 13.0 11.5 11.9 93 0.6 NNW 11 19 6 10 1017.9 - 3.2
30/03:30am 13.0 11.5 11.9 93 0.6 NNW 11 17 6 9 1018.0 - 3.2
30/03:00am 13.1 11.6 11.8 92 0.7 NNW 11 17 6 9 1018.2 1018.3 3.2
30/02:30am 13.2 11.3 11.9 92 0.7 NNW 13 20 7 11 1018.4 - 3.2
30/02:00am 13.3 11.0 11.8 91 0.8 NNW 15 24 8 13 1018.5 - 3.2
30/01:30am 13.3 11.1 12.0 92 0.7 NNW 15 24 8 13 1018.7 - 3.2
30/01:00am 13.4 11.2 12.1 92 0.7 NNW 15 24 8 13 1018.7 - 3.2
30/12:30am 13.5 11.7 12.0 91 0.8 NNW 13 22 7 12 1018.7 - 3.2
30/12:00am 13.7 11.5 12.0 89 0.9 NW 15 19 8 10 1018.9 1019.0 3.2
 
Date/Time
CST
Tmp

°C
App
Tmp
°C
Dew
Point
°C
Rel
Hum
%
Delta-T

°C
Wind Press
QNH
hPa
Press
MSL
hPa
Rain
since
9 am
mm
Dir
 
Spd
km/h
Gust
km/h
Spd
kts
Gust
kts
29/11:30pm 13.7 11.5 12.2 91 0.8 NW 15 26 8 14 1019.0 - 3.2
29/11:00pm 13.8 11.2 12.1 89 0.9 NW 17 28 9 15 1019.1 - 3.2
29/10:30pm 14.2 11.9 11.8 85 1.3 NW 15 22 8 12 1019.0 - 3.2
29/10:00pm 14.3 11.0 11.7 84 1.4 WNW 20 39 11 21 1019.0 - 3.2
29/09:30pm 14.2 11.3 12.2 88 1.1 WNW 19 30 10 16 1018.8 - 3.2
29/09:00pm 13.7 11.5 12.0 89 0.9 WNW 15 26 8 14 1018.8 1018.9 3.2
29/08:30pm 13.9 11.3 11.9 88 1.1 WNW 17 30 9 16 1018.5 - 3.2
29/08:00pm 13.9 11.4 12.2 89 0.9 WNW 17 30 9 16 1018.3 - 3.2
29/07:30pm 13.7 12.0 12.4 92 0.7 NW 13 20 7 11 1018.0 - 3.2
29/07:00pm 13.8 11.0 12.7 93 0.6 WNW 19 30 10 16 1018.1 - 3.2
29/06:30pm 14.5 11.4 12.1 85 1.3 WNW 20 37 11 20 1017.7 - 3.0
29/06:00pm 14.2 12.5 12.5 89 0.9 NNW 13 19 7 10 1017.2 1017.3 3.0
29/05:30pm 14.1 13.3 12.8 92 0.7 NNW 9 17 5 9 1017.0 - 3.0
29/05:00pm 14.0 13.0 13.3 96 0.4 NW 11 19 6 10 1017.0 - 3.0
29/04:30pm 13.8 11.9 13.1 96 0.4 NW 15 24 8 13 1016.8 - 3.0
29/04:00pm 14.3 11.4 12.8 91 0.8 NW 20 37 11 20 1016.6 - 0.4
29/03:30pm 14.6 11.9 12.8 89 1.0 NW 19 28 10 15 1016.5 - 0.2
29/03:00pm 15.4 12.7 11.7 78 2.0 NW 17 33 9 18 1016.2 1016.3 0.0
29/02:30pm 15.5 11.4 11.6 77 2.1 NW 24 41 13 22 1016.1 - 0.0
29/02:00pm 15.7 11.6 11.4 75 2.3 NW 24 44 13 24 1016.1 - 0.0
29/01:30pm 15.9 11.4 11.5 75 2.4 NW 26 50 14 27 1016.0 - 0.0
29/01:26pm 15.8 10.9 11.3 74 2.4 NW 28 50 15 27 1016.2 - 0.0
29/01:00pm 16.7 12.7 11.7 72 2.7 NW 24 37 13 20 1016.2 - 0.0
29/12:30pm 15.8 12.0 11.3 74 2.4 NW 22 33 12 18 1016.5 - 0.0
29/12:00pm 16.7 12.2 11.3 70 2.9 NW 26 41 14 22 1016.8 1016.9 0.0
29/11:31am 15.5 10.5 11.0 74 2.4 NW 28 46 15 25 1017.2 - 0.0
29/11:30am 15.5 10.9 11.2 75 2.3 NNW 26 43 14 23 1017.2 - 0.0
29/11:00am 14.8 11.4 11.2 79 1.9 NW 20 37 11 20 1017.2 - 0.0
29/10:30am 14.3 10.9 11.1 81 1.7 NNW 20 32 11 17 1017.0 - 0.0
29/10:00am 13.7 10.3 10.6 81 1.6 NNW 19 32 10 17 1017.3 - 0.0
29/09:30am 13.2 9.7 10.3 82 1.5 NNW 19 30 10 16 1017.1 - 0.0
29/09:00am 12.7 9.2 10.2 85 1.3 NNW 19 28 10 15 1016.8 1016.9 0.0
29/08:30am 12.6 8.8 9.9 83 1.4 NNW 20 33 11 18 1016.5 - 0.0
29/08:00am 12.3 9.0 9.7 84 1.3 NNW 17 26 9 14 1016.3 - 0.0
29/07:30am 11.8 8.8 9.4 85 1.2 NNW 15 24 8 13 1016.4 - 0.0
29/07:00am 10.5 7.7 8.7 89 0.9 N 13 19 7 10 1016.2 - 0.0
29/06:30am 10.0 7.4 7.9 87 1.0 N 11 17 6 9 1016.0 - 0.0
29/06:00am 10.1 7.5 7.6 84 1.2 N 11 17 6 9 1015.6 1015.7 0.0
29/05:30am 9.5 6.6 6.7 83 1.3 N 11 15 6 8 1016.0 - 0.0
29/05:00am 9.4 5.7 6.4 81 1.4 NNW 15 22 8 12 1015.7 - 0.0
29/04:30am 9.5 6.6 6.3 80 1.5 N 11 17 6 9 1015.9 - 0.0
29/04:00am 9.5 7.0 6.5 81 1.4 NE 9 15 5 8 1016.3 - 0.0
29/03:30am 9.6 7.1 6.6 81 1.4 NNE 9 15 5 8 1016.5 - 0.0
29/03:00am 9.7 7.2 6.7 81 1.4 NNE 9 15 5 8 1016.2 1016.3 0.0
29/02:30am 9.5 6.6 6.7 83 1.3 NE 11 15 6 8 1016.4 - 0.0
29/02:00am 9.2 6.8 7.1 87 1.0 NE 9 15 5 8 1016.5 - 0.0
29/01:30am 9.3 6.9 7.2 87 1.0 NE 9 15 5 8 1016.8 - 0.0
29/01:00am 9.2 6.5 7.3 88 0.9 ENE 11 13 6 7 1016.8 - 0.0
29/12:30am 9.4 7.2 7.7 89 0.8 ENE 9 13 5 7 1017.0 - 0.0
29/12:00am 9.8 7.6 7.9 88 0.9 NNE 9 13 5 7 1017.2 1017.3 0.0
 
Date/Time
CST
Tmp

°C
App
Tmp
°C
Dew
Point
°C
Rel
Hum
%
Delta-T

°C
Wind Press
QNH
hPa
Press
MSL
hPa
Rain
since
9 am
mm
Dir
 
Spd
km/h
Gust
km/h
Spd
kts
Gust
kts
28/11:30pm 9.6 7.9 8.4 92 0.6 NE 7 11 4 6 1017.0 - 0.0
28/11:00pm 10.3 8.3 8.7 90 0.8 NE 9 13 5 7 1017.3 - 0.0
28/10:30pm 10.2 8.2 8.8 91 0.7 ENE 9 11 5 6 1017.3 - 0.0
28/10:00pm 10.6 9.3 9.2 91 0.7 NE 6 7 3 4 1017.4 - 0.0
28/09:30pm 11.3 9.9 9.5 89 0.9 N 7 9 4 5 1017.3 - 0.0
28/09:00pm 11.3 9.6 9.9 91 0.7 N 9 11 5 6 1017.4 1017.5 0.0
28/08:30pm 11.7 10.0 9.9 89 0.9 N 9 13 5 7 1017.3 - 0.0
28/08:00pm 11.9 10.3 10.1 89 0.9 N 9 13 5 7 1017.2 - 0.0
28/07:30pm 12.0 10.4 10.2 89 0.9 N 9 11 5 6 1017.0 - 0.0
28/07:00pm 12.6 11.0 10.3 86 1.2 N 9 11 5 6 1016.8 - 0.0
28/06:30pm 13.1 11.2 10.4 84 1.4 NNW 11 15 6 8 1016.6 - 0.0
28/06:00pm 13.5 11.2 10.4 81 1.6 NNW 13 17 7 9 1016.5 1016.6 0.0
28/05:30pm 14.1 12.3 10.7 80 1.8 NNW 11 20 6 11 1016.5 - 0.0
28/05:00pm 14.7 11.3 10.5 76 2.2 NNW 19 28 10 15 1016.6 - 0.0
28/04:30pm 15.2 11.3 10.7 74 2.4 NNW 22 37 12 20 1016.1 - 0.0
28/04:00pm 16.1 12.7 11.1 72 2.7 NNW 20 37 11 20 1015.9 - 0.0
28/03:30pm 16.5 13.2 10.9 69 3.0 NNW 19 28 10 15 1016.4 - 0.0
28/03:00pm 16.1 12.9 11.3 73 2.6 NW 19 33 10 18 1016.4 1016.5 0.0
28/02:30pm 16.2 13.4 11.2 72 2.7 NNW 17 28 9 15 1016.6 - 0.0
28/02:00pm 15.2 12.3 10.9 75 2.3 NW 17 20 9 11 1016.9 - 0.0
28/01:30pm 14.8 12.5 10.6 76 2.2 N 13 20 7 11 1017.0 - 0.0
28/01:00pm 14.1 11.1 10.7 80 1.8 NNW 17 24 9 13 1017.5 - 0.0

Latest Capital City Observations: Canberra | Sydney | Melbourne | Brisbane | Adelaide | Perth | Hobart | Darwin

Other Formats:

Comma delimited format used in spreadsheet applications
http://www.bom.gov.au/fwo/IDS60901/IDS60901.94675.axf

JavaScript Object Notation format (JSON) in row-major order
http://www.bom.gov.au/fwo/IDS60901/IDS60901.94675.json